Time;durP1;ratioP1;P1;durP2;ratioP2;P2;SDS_P1;SDS_P2;PMS_P1;PMS_P2;Temp;Humidity;BMP_temperature;BMP_pressure;BME280_temperature;BME280_humidity;BME280_pressure;Samples;Min_cycle;Max_cycle;Signal;HPM_P1;HPM_P2
2020/12/19 00:02:18;;;;;;;26.60;16.25;;;;;;;8.39;53.23;101738.20;1784882;79;21348;-78
2020/12/19 00:04:46;;;;;;;25.55;14.70;;;;;;;8.42;53.03;101729.13;1784541;79;21191;-78
2020/12/19 00:07:14;;;;;;;25.45;14.98;;;;;;;8.40;52.93;101731.89;1784250;80;21112;-77
2020/12/19 00:09:42;;;;;;;25.23;13.98;;;;;;;8.38;52.94;101736.02;1784251;80;21669;-78
2020/12/19 00:12:10;;;;;;;25.05;14.15;;;;;;;8.38;52.94;101733.84;1784178;79;21614;-78
2020/12/19 00:14:38;;;;;;;21.90;12.75;;;;;;;8.38;52.91;101728.50;1784540;79;21510;-78
2020/12/19 00:17:05;;;;;;;26.97;14.15;;;;;;;8.39;52.97;101733.72;1783765;80;21210;-78
2020/12/19 00:19:33;;;;;;;22.87;14.78;;;;;;;8.40;52.94;101729.23;1783845;80;21136;-78
2020/12/19 00:22:01;;;;;;;26.60;14.70;;;;;;;8.41;52.91;101725.61;1783955;80;21148;-78
2020/12/19 00:24:28;;;;;;;24.47;14.90;;;;;;;8.44;52.90;101737.38;1783861;80;21128;-77
2020/12/19 00:26:56;;;;;;;27.30;15.63;;;;;;;8.43;52.87;101730.34;1783680;80;21374;-77
2020/12/19 00:29:26;;;;;;;27.58;15.85;;;;;;;8.44;52.92;101735.20;1784445;80;21092;-79
2020/12/19 00:31:55;;;;;;;29.63;16.30;;;;;;;8.44;52.89;101733.38;1784183;80;21164;-78
2020/12/19 00:34:23;;;;;;;28.60;17.92;;;;;;;8.44;52.92;101733.38;1783704;80;21128;-79
2020/12/19 00:36:53;;;;;;;30.20;16.45;;;;;;;8.42;52.96;101729.98;1783667;80;21192;-79
2020/12/19 00:39:21;;;;;;;30.10;18.77;;;;;;;8.43;52.99;101730.34;1784339;79;22628;-77
2020/12/19 00:41:49;;;;;;;27.05;17.48;;;;;;;8.43;52.98;101725.00;1784197;80;21586;-77
2020/12/19 00:44:17;;;;;;;33.45;19.60;;;;;;;8.48;52.97;101731.34;1784408;79;21139;-79
2020/12/19 00:46:48;;;;;;;32.98;19.35;;;;;;;8.48;52.92;101727.34;1784176;80;21241;-78
2020/12/19 00:49:17;;;;;;;29.40;17.77;;;;;;;8.45;52.91;101735.11;1784436;80;21650;-79
2020/12/19 00:51:45;;;;;;;31.35;18.67;;;;;;;8.45;52.92;101727.09;1784227;80;21183;-79
2020/12/19 00:54:13;;;;;;;28.80;17.32;;;;;;;8.45;52.87;101721.75;1783960;80;21171;-79
2020/12/19 00:56:41;;;;;;;27.05;15.75;;;;;;;8.44;52.89;101709.83;1777590;80;21225;-78
2020/12/19 00:59:08;;;;;;;30.05;17.07;;;;;;;8.44;52.88;101708.02;1778044;80;21162;-78
2020/12/19 01:01:37;;;;;;;31.87;17.85;;;;;;;8.45;52.89;101708.41;1778299;80;21180;-82
2020/12/19 01:04:05;;;;;;;30.23;17.92;;;;;;;8.46;52.86;101707.43;1777897;80;21273;-79
2020/12/19 01:06:32;;;;;;;35.15;17.82;;;;;;;8.40;52.87;101699.86;1777496;80;21207;-79
2020/12/19 01:09:00;;;;;;;24.43;14.63;;;;;;;8.36;52.91;101699.71;1777594;80;21211;-79
2020/12/19 01:11:30;;;;;;;27.00;15.23;;;;;;;8.33;53.04;101698.59;1776855;80;21653;-78
2020/12/19 01:13:57;;;;;;;29.25;14.90;;;;;;;8.32;53.12;101698.23;1777598;80;21234;-78
2020/12/19 01:16:27;;;;;;;28.55;15.18;;;;;;;8.33;53.11;101695.92;1777756;80;21361;-78
2020/12/19 01:18:57;;;;;;;27.90;14.40;;;;;;;8.36;53.09;101695.70;1777909;80;21188;-77
2020/12/19 01:21:27;;;;;;;28.73;15.40;;;;;;;8.36;53.09;101693.03;1777946;80;21073;-79
2020/12/19 01:23:55;;;;;;;28.23;15.03;;;;;;;8.39;53.08;101695.00;1777967;80;21175;-78
2020/12/19 01:26:24;;;;;;;26.10;15.55;;;;;;;8.43;53.04;101692.12;1777770;80;21091;-77
2020/12/19 01:28:52;;;;;;;25.80;15.35;;;;;;;8.42;53.01;101686.41;1778013;80;21369;-80
2020/12/19 01:31:21;;;;;;;25.75;14.38;;;;;;;8.42;52.96;101691.75;1777884;80;21175;-76
2020/12/19 01:33:49;;;;;;;26.20;14.18;;;;;;;8.32;53.15;101695.56;1777799;80;21178;-76
2020/12/19 01:36:21;;;;;;;27.62;15.15;;;;;;;8.31;53.23;101690.70;1777812;80;21186;-81
2020/12/19 01:38:49;;;;;;;29.67;15.08;;;;;;;8.31;53.29;101689.83;1777754;80;21124;-78
2020/12/19 01:41:19;;;;;;;31.50;16.97;;;;;;;8.31;53.28;101688.03;1777453;80;21368;-77
2020/12/19 01:43:51;;;;;;;32.38;18.12;;;;;;;8.33;53.28;101686.09;1749139;80;21242;-78
2020/12/19 01:46:34;;;;;;;34.53;18.32;;;;;;;8.41;53.15;101692.73;1776335;80;21213;-78
2020/12/19 01:49:03;;;;;;;37.67;19.52;;;;;;;8.41;53.16;101692.73;1777418;80;21155;-79
2020/12/19 01:51:32;;;;;;;31.52;18.32;;;;;;;8.44;53.16;101689.80;1777382;80;21199;-78
2020/12/19 01:54:00;;;;;;;32.05;17.87;;;;;;;8.47;53.06;101695.78;1777498;80;22231;-78
2020/12/19 01:56:53;;;;;;;35.60;19.67;;;;;;;8.50;53.03;101691.55;1777645;80;21144;-76
2020/12/19 01:59:25;;;;;;;39.45;20.82;;;;;;;8.52;52.96;101688.76;1769767;80;21053;-81
2020/12/19 02:01:58;;;;;;;35.78;20.05;;;;;;;8.50;52.94;101686.22;1777701;80;21672;-78
2020/12/19 02:04:26;;;;;;;34.83;19.40;;;;;;;8.49;52.96;101691.16;1777792;80;21146;-80
2020/12/19 02:06:56;;;;;;;37.53;20.88;;;;;;;8.48;52.98;101690.80;1777567;80;21370;-79
2020/12/19 02:09:27;;;;;;;37.30;21.45;;;;;;;8.48;52.99;101688.13;1777790;80;21182;-77
2020/12/19 02:11:55;;;;;;;36.68;21.12;;;;;;;8.50;53.02;101688.88;1750366;80;21421;-79
2020/12/19 02:14:23;;;;;;;34.75;19.05;;;;;;;8.52;52.99;101691.43;1777559;80;21167;-77
2020/12/19 02:17:04;;;;;;;30.90;17.98;;;;;;;8.49;53.01;101688.49;1777760;80;21178;-77
2020/12/19 02:19:32;;;;;;;32.55;16.77;;;;;;;8.47;53.07;101688.25;1777707;80;22506;-80
2020/12/19 02:22:00;;;;;;;33.80;16.93;;;;;;;8.47;53.08;101685.09;1777866;80;21202;-79
2020/12/19 02:24:28;;;;;;;35.25;17.45;;;;;;;8.47;53.04;101701.12;1777636;80;21048;-78
2020/12/19 02:26:57;;;;;;;35.48;17.27;;;;;;;8.48;53.05;101697.96;1777757;80;21546;-80
2020/12/19 02:29:28;;;;;;;33.23;16.52;;;;;;;8.48;52.99;101698.81;1777256;80;21159;-80
2020/12/19 02:31:58;;;;;;;31.12;16.70;;;;;;;8.48;52.99;101697.47;1777211;80;21320;-79
2020/12/19 02:34:26;;;;;;;35.30;17.77;;;;;;;8.51;52.97;101700.41;1776701;80;21223;-80
2020/12/19 02:36:54;;;;;;;37.30;17.85;;;;;;;8.52;52.99;101694.95;1776502;80;21187;-78
2020/12/19 02:39:22;;;;;;;40.85;18.52;;;;;;;8.54;52.97;101690.36;1776583;80;21195;-78
2020/12/19 02:41:50;;;;;;;34.98;18.05;;;;;;;8.55;52.93;101698.73;1777148;80;21199;-78
2020/12/19 02:44:20;;;;;;;31.48;15.70;;;;;;;8.55;52.90;101704.56;1777204;80;21809;-78
2020/12/19 02:46:48;;;;;;;30.90;15.55;;;;;;;8.54;52.86;101707.72;1777392;80;21868;-78
2020/12/19 02:49:17;;;;;;;32.13;16.12;;;;;;;8.54;52.88;101700.16;1777270;80;21183;-77
2020/12/19 02:51:45;;;;;;;27.07;13.32;;;;;;;8.54;52.83;101709.52;1777516;80;21167;-78
2020/12/19 02:54:12;;;;;;;31.30;14.90;;;;;;;8.52;52.86;101709.64;1777848;80;21167;-78
2020/12/19 02:56:40;;;;;;;32.15;16.35;;;;;;;8.52;52.89;101708.78;1777647;80;21473;-78
2020/12/19 02:59:08;;;;;;;31.12;15.93;;;;;;;8.53;52.90;101709.15;1777645;80;21446;-78
2020/12/19 03:01:37;;;;;;;36.95;18.80;;;;;;;8.57;52.81;101703.95;1777267;80;21207;-79
2020/12/19 03:04:05;;;;;;;38.00;18.50;;;;;;;8.58;52.79;101698.97;1777254;80;21191;-79
2020/12/19 03:06:34;;;;;;;33.15;18.67;;;;;;;8.55;52.84;101697.89;1777221;80;21171;-79
2020/12/19 03:09:03;;;;;;;34.58;18.77;;;;;;;8.55;52.83;101696.06;1777297;80;21801;-79
2020/12/19 03:11:31;;;;;;;33.63;18.40;;;;;;;8.53;52.82;101699.31;1777438;80;21581;-80
2020/12/19 03:14:01;;;;;;;30.72;17.65;;;;;;;8.54;52.83;101703.72;1776977;80;21187;-79
2020/12/19 03:16:28;;;;;;;24.30;13.55;;;;;;;8.59;52.73;101704.22;1777692;80;21158;-79
2020/12/19 03:18:56;;;;;;;28.98;16.40;;;;;;;8.59;52.73;101704.22;1777778;80;21175;-79
2020/12/19 03:21:24;;;;;;;25.00;14.60;;;;;;;8.56;52.77;101695.09;1777828;80;21784;-79
2020/12/19 03:23:52;;;;;;;28.55;15.83;;;;;;;8.53;52.90;101697.13;1777682;80;21194;-79
2020/12/19 03:26:20;;;;;;;29.00;16.40;;;;;;;8.54;52.86;101695.70;1777695;80;21107;-79
2020/12/19 03:28:48;;;;;;;24.30;15.00;;;;;;;8.55;52.84;101690.72;1777652;80;21214;-79
2020/12/19 03:31:15;;;;;;;24.98;14.83;;;;;;;8.57;52.82;101692.78;1778037;80;21155;-79
2020/12/19 03:33:43;;;;;;;28.87;15.63;;;;;;;8.56;52.81;101693.76;1777538;80;21204;-80
2020/12/19 03:36:11;;;;;;;27.22;15.28;;;;;;;8.57;52.80;101691.45;1777976;80;21175;-79
2020/12/19 03:38:40;;;;;;;29.67;14.93;;;;;;;8.59;52.78;101695.36;1777492;80;21195;-78
2020/12/19 03:41:07;;;;;;;20.72;12.07;;;;;;;8.62;52.66;101689.28;1777890;80;21601;-80
2020/12/19 03:43:36;;;;;;;25.23;14.40;;;;;;;8.57;52.82;101685.26;1777890;80;21199;-80
2020/12/19 03:46:03;;;;;;;22.73;14.05;;;;;;;8.55;52.89;101694.73;1777895;80;21803;-79
2020/12/19 03:48:31;;;;;;;27.10;15.48;;;;;;;8.61;52.84;101690.73;1777689;80;21178;-79
2020/12/19 03:50:59;;;;;;;25.45;14.75;;;;;;;8.63;52.82;101688.82;1777755;80;21159;-79
2020/12/19 03:53:27;;;;;;;27.75;15.13;;;;;;;8.62;52.83;101687.09;1749690;80;21662;-79
2020/12/19 03:55:55;;;;;;;22.75;13.22;;;;;;;8.61;52.88;101692.92;1777539;80;21163;-80
2020/12/19 03:58:22;;;;;;;23.25;13.75;;;;;;;8.56;52.97;101688.91;1749979;80;21799;-79
2020/12/19 04:00:50;;;;;;;22.22;13.35;;;;;;;8.59;52.90;101688.19;1777722;80;21422;-79
2020/12/19 04:03:18;;;;;;;24.40;12.40;;;;;;;8.60;52.88;101697.05;1783986;79;21190;-78
2020/12/19 04:05:45;;;;;;;20.52;11.75;;;;;;;8.58;52.93;101691.84;1783978;80;21191;-78
2020/12/19 04:08:13;;;;;;;27.25;13.55;;;;;;;8.57;52.90;101690.11;1783446;80;21171;-78
2020/12/19 04:10:41;;;;;;;23.52;14.10;;;;;;;8.60;52.93;101692.56;1782834;79;21367;-79
2020/12/19 04:13:09;;;;;;;25.02;13.32;;;;;;;8.62;52.93;101689.28;1784273;80;21123;-79
2020/12/19 04:15:37;;;;;;;26.90;14.07;;;;;;;8.61;52.90;101695.59;1783691;80;21164;-78
2020/12/19 04:18:05;;;;;;;24.65;13.60;;;;;;;8.65;52.86;101698.89;1784420;80;21421;-78
2020/12/19 04:20:32;;;;;;;26.80;14.55;;;;;;;8.64;52.86;101690.03;1783830;80;21161;-78
2020/12/19 04:23:00;;;;;;;27.02;14.73;;;;;;;8.64;52.85;101693.19;1755232;80;21171;-79
2020/12/19 04:25:28;;;;;;;27.35;15.48;;;;;;;8.63;52.88;101693.67;1782939;79;21519;-80
2020/12/19 04:27:55;;;;;;;36.58;21.60;;;;;;;8.63;52.90;101688.33;1782696;80;21638;-78
2020/12/19 04:30:23;;;;;;;31.48;15.25;;;;;;;8.64;52.87;101695.86;1782089;80;21183;-78
2020/12/19 04:32:51;;;;;;;27.77;14.70;;;;;;;8.65;52.88;101692.22;1804918;79;21169;-79
2020/12/19 04:35:19;;;;;;;31.02;15.65;;;;;;;8.66;52.91;101693.06;1807427;79;21797;-77
2020/12/19 04:37:47;;;;;;;32.63;16.77;;;;;;;8.67;52.89;101697.43;1807551;78;21190;-78
2020/12/19 04:40:15;;;;;;;29.30;15.93;;;;;;;8.69;52.86;101690.17;1807860;78;21568;-77
2020/12/19 04:42:43;;;;;;;25.72;15.18;;;;;;;8.73;52.83;101694.31;1785022;80;21727;-76
2020/12/19 04:45:11;;;;;;;31.23;16.25;;;;;;;8.73;52.79;101689.83;1801051;79;21090;-77
2020/12/19 04:47:39;;;;;;;26.90;15.13;;;;;;;8.74;52.78;101690.67;1786573;80;21366;-77
2020/12/19 04:50:07;;;;;;;30.50;16.20;;;;;;;8.74;52.78;101694.68;1774471;79;21039;-79
2020/12/19 04:52:35;;;;;;;31.35;16.05;;;;;;;8.72;52.80;101689.92;1786035;80;21145;-80
2020/12/19 04:55:02;;;;;;;35.40;18.95;;;;;;;8.69;52.86;101692.36;1800305;79;21154;-77
2020/12/19 04:57:30;;;;;;;30.20;17.37;;;;;;;8.69;52.91;101694.18;1785950;80;21170;-78
2020/12/19 04:59:58;;;;;;;31.10;17.37;;;;;;;8.70;52.91;101693.20;1800654;79;22191;-77
2020/12/19 05:02:26;;;;;;;30.30;17.20;;;;;;;8.70;52.95;101696.72;1785986;80;21695;-76
2020/12/19 05:04:55;;;;;;;26.95;16.02;;;;;;;8.71;52.94;101702.42;1800460;79;21604;-78
2020/12/19 05:07:25;;;;;;;26.45;15.00;;;;;;;8.73;52.91;101704.52;1781143;80;21160;-79
2020/12/19 05:09:52;;;;;;;24.60;12.73;;;;;;;8.70;52.88;101697.21;1773408;79;21166;-79
2020/12/19 05:12:20;;;;;;;21.60;12.58;;;;;;;8.70;52.85;101703.40;1786408;80;22224;-78
2020/12/19 05:14:49;;;;;;;22.67;12.28;;;;;;;8.70;52.85;101701.22;1798421;77;21057;-77
2020/12/19 05:17:17;;;;;;;23.38;11.90;;;;;;;8.69;52.86;101700.86;1791665;80;21662;-77
2020/12/19 05:19:44;;;;;;;18.25;10.32;;;;;;;8.66;52.87;101699.73;1782787;80;21711;-77
2020/12/19 05:22:17;;;;;;;18.07;11.65;;;;;;;8.66;52.89;101698.41;1797168;79;21423;-77
2020/12/19 05:24:44;;;;;;;20.85;12.03;;;;;;;8.68;52.89;101707.17;1810250;78;21370;-77
2020/12/19 05:27:12;;;;;;;19.52;12.78;;;;;;;8.69;52.88;101700.37;1813529;79;21129;-77
2020/12/19 05:29:40;;;;;;;23.30;13.48;;;;;;;8.72;52.87;101698.81;1780002;79;21541;-76
2020/12/19 05:32:08;;;;;;;23.15;12.33;;;;;;;8.74;52.84;101708.03;1797619;79;21116;-76
2020/12/19 05:34:35;;;;;;;19.77;11.30;;;;;;;8.76;52.77;101703.41;1797384;79;21133;-76
2020/12/19 05:37:03;;;;;;;20.85;11.88;;;;;;;8.78;52.69;101713.52;1797576;79;21316;-76
2020/12/19 05:39:31;;;;;;;22.13;13.00;;;;;;;8.79;52.65;101708.53;1751640;79;21093;-76
2020/12/19 05:41:59;;;;;;;22.90;12.82;;;;;;;8.79;52.63;101716.55;1805883;79;21109;-79
2020/12/19 05:44:26;;;;;;;18.85;11.97;;;;;;;8.78;52.64;101712.19;1790241;80;21193;-79
2020/12/19 05:46:54;;;;;;;18.20;10.90;;;;;;;8.77;52.68;101715.83;1796157;79;21562;-79
2020/12/19 05:49:22;;;;;;;22.70;13.83;;;;;;;8.77;52.69;101717.16;1802892;79;21842;-78
2020/12/19 05:51:50;;;;;;;23.62;13.72;;;;;;;8.78;52.74;101721.53;1806141;79;21201;-77
2020/12/19 05:54:18;;;;;;;23.73;13.70;;;;;;;8.79;52.66;101721.41;1805709;79;21181;-77
2020/12/19 05:56:50;;;;;;;23.62;12.75;;;;;;;8.81;52.59;101719.95;1804460;79;21153;-78
2020/12/19 05:59:19;;;;;;;20.45;12.20;;;;;;;8.81;52.59;101726.17;1806294;79;21625;-77
2020/12/19 06:01:49;;;;;;;20.65;12.30;;;;;;;8.82;52.55;101732.36;1809253;79;21613;-77
2020/12/19 06:04:17;;;;;;;22.37;12.23;;;;;;;8.81;52.52;101734.64;1806476;79;21177;-77
2020/12/19 06:06:47;;;;;;;22.25;12.35;;;;;;;8.79;52.50;101733.91;1804425;79;21149;-77
2020/12/19 06:09:16;;;;;;;21.82;12.75;;;;;;;8.78;52.47;101738.90;1807068;79;21097;-77
2020/12/19 06:12:07;;;;;;;22.50;11.33;;;;;;;8.77;52.52;101741.20;1791993;80;21637;-77
2020/12/19 06:14:35;;;;;;;21.65;11.15;;;;;;;8.76;52.56;101741.66;1803655;79;21376;-77
2020/12/19 06:17:23;;;;;;;23.22;12.80;;;;;;;8.74;52.55;101739.61;1792617;78;21102;-77
2020/12/19 06:20:00;;;;;;;21.50;11.93;;;;;;;8.80;52.57;101735.61;1830662;77;22812;-79
2020/12/19 06:22:31;;;;;;;22.32;13.10;;;;;;;8.79;52.58;101749.95;1791219;80;21528;-76
2020/12/19 06:24:59;;;;;;;22.58;13.03;;;;;;;8.81;52.57;101750.67;1801637;78;21795;-78
2020/12/19 06:27:36;;;;;;;22.15;13.38;;;;;;;8.82;52.56;101749.23;1773755;79;21174;-80
2020/12/19 06:30:04;;;;;;;23.92;12.85;;;;;;;8.85;52.54;101744.12;1810197;79;21173;-77
2020/12/19 06:32:32;;;;;;;21.57;13.05;;;;;;;8.85;52.54;101748.14;1806211;77;21131;-77
2020/12/19 06:35:08;;;;;;;24.52;13.08;;;;;;;8.84;52.52;101748.63;1803346;77;21185;-77
2020/12/19 06:37:43;;;;;;;23.00;13.08;;;;;;;8.84;52.47;101763.81;1791961;80;21362;-79
2020/12/19 06:40:15;;;;;;;23.32;13.15;;;;;;;8.83;52.44;101768.79;1800065;79;21200;-80
2020/12/19 06:42:45;;;;;;;20.77;12.63;;;;;;;8.84;52.50;101770.00;1803737;79;21105;-80
2020/12/19 06:45:27;;;;;;;24.82;13.85;;;;;;;8.86;52.49;101775.25;1791885;79;21682;-76
2020/12/19 06:47:59;;;;;;;23.05;13.53;;;;;;;8.84;52.52;101774.50;1815355;79;21170;-79
2020/12/19 06:50:54;;;;;;;24.20;13.98;;;;;;;8.86;52.54;101777.92;1808291;77;21371;-78
2020/12/19 06:53:21;;;;;;;24.23;13.10;;;;;;;8.88;52.49;101785.33;1815213;79;21247;-77
2020/12/19 06:55:50;;;;;;;24.72;13.13;;;;;;;8.87;52.45;101778.28;1814397;77;21203;-79
2020/12/19 06:58:33;;;;;;;22.58;12.15;;;;;;;8.86;52.37;101779.26;1800849;77;21211;-80
2020/12/19 07:01:24;;;;;;;22.13;12.10;;;;;;;8.84;52.42;101782.02;1799217;77;21187;-78
2020/12/19 07:03:52;;;;;;;29.30;15.25;;;;;;;8.83;52.46;101785.67;1791972;78;21374;-78
2020/12/19 07:06:20;;;;;;;31.68;15.10;;;;;;;8.83;52.54;101782.15;1803749;79;21062;-77
2020/12/19 07:08:50;;;;;;;25.52;14.85;;;;;;;8.83;52.63;101784.82;1803152;79;21221;-78
2020/12/19 07:11:40;;;;;;;28.50;14.38;;;;;;;8.83;52.64;101782.15;1802787;79;21375;-77
2020/12/19 07:14:15;;;;;;;26.93;14.95;;;;;;;8.82;52.69;101791.14;1806389;78;21114;-79
2020/12/19 07:16:50;;;;;;;28.00;15.13;;;;;;;8.80;52.77;101791.23;1804770;79;21411;-79
2020/12/19 07:19:24;;;;;;;32.15;15.00;;;;;;;8.78;52.84;101801.68;1791856;79;21752;-78
2020/12/19 07:21:55;;;;;;;27.40;13.28;;;;;;;8.78;52.92;101797.67;1804282;77;21106;-79
2020/12/19 07:24:23;;;;;;;34.15;16.97;;;;;;;8.77;52.95;101794.64;1798592;77;21076;-79
2020/12/19 07:26:51;;;;;;;29.60;15.10;;;;;;;8.79;53.02;101796.70;1803983;77;21109;-79
2020/12/19 07:29:23;;;;;;;30.30;15.63;;;;;;;8.80;53.12;101795.73;1792171;79;21401;-77
2020/12/19 07:31:56;;;;;;;34.25;16.23;;;;;;;8.82;53.11;101801.34;1806350;79;21145;-80
2020/12/19 07:34:23;;;;;;;29.55;15.60;;;;;;;8.85;53.12;101792.22;1796190;79;21122;-79
2020/12/19 07:36:52;;;;;;;35.08;16.12;;;;;;;8.86;53.12;101796.63;1790934;80;21182;-79
2020/12/19 07:39:21;;;;;;;36.70;16.60;;;;;;;8.88;53.12;101804.88;1792258;78;21571;-79
2020/12/19 07:42:08;;;;;;;33.83;16.27;;;;;;;8.88;53.14;101803.55;1805601;77;21356;-78
2020/12/19 07:44:37;;;;;;;35.65;14.68;;;;;;;8.94;53.06;101800.04;1801202;79;21666;-77
2020/12/19 07:47:08;;;;;;;36.60;17.57;;;;;;;8.87;53.17;101809.02;1797505;79;21171;-77
2020/12/19 07:49:46;;;;;;;43.48;18.30;;;;;;;8.88;53.24;101810.71;1793966;77;21496;-80
2020/12/19 07:52:24;;;;;;;42.43;20.85;;;;;;;8.88;53.29;101812.89;1793563;79;21160;-79
2020/12/19 07:55:04;;;;;;;41.20;17.73;;;;;;;8.90;53.32;101811.43;1792583;78;21196;-78
2020/12/19 07:57:33;;;;;;;36.45;17.00;;;;;;;8.92;53.29;101809.52;1797591;79;21193;-79
2020/12/19 08:00:03;;;;;;;43.98;19.23;;;;;;;8.93;53.29;101820.56;1791647;78;21144;-79
2020/12/19 08:02:33;;;;;;;49.95;20.30;;;;;;;8.92;53.29;101810.85;1802281;79;21567;-77
2020/12/19 08:05:00;;;;;;;50.25;21.15;;;;;;;8.91;53.31;101807.82;1737624;79;21637;-78
2020/12/19 08:07:29;;;;;;;46.63;19.48;;;;;;;8.89;53.32;101811.07;1796493;79;21424;-81
2020/12/19 08:10:02;;;;;;;42.90;20.75;;;;;;;8.87;53.30;101813.02;1792508;77;21179;-79
2020/12/19 08:12:30;;;;;;;40.38;16.67;;;;;;;8.87;53.34;101805.00;1783388;77;21206;-77
2020/12/19 08:15:05;;;;;;;42.85;19.12;;;;;;;8.87;53.33;101806.34;1796092;79;21419;-77
2020/12/19 08:17:38;;;;;;;43.10;18.15;;;;;;;8.88;53.39;101808.03;1785044;79;21565;-78
2020/12/19 08:20:06;;;;;;;43.48;18.92;;;;;;;8.88;53.36;101806.22;1795929;79;21183;-77
2020/12/19 08:22:34;;;;;;;44.53;18.17;;;;;;;8.88;53.37;101809.37;1764716;79;21152;-78
2020/12/19 08:25:01;;;;;;;43.68;18.32;;;;;;;8.88;53.36;101806.22;1726354;77;21103;-77
2020/12/19 08:27:46;;;;;;;43.33;17.73;;;;;;;8.89;53.39;101808.40;1729234;77;21382;-79
2020/12/19 08:30:23;;;;;;;36.10;15.05;;;;;;;8.87;53.43;101805.00;1788343;79;21193;-77
2020/12/19 08:32:59;;;;;;;41.75;16.62;;;;;;;8.86;53.41;101804.64;1801999;79;22723;-76
2020/12/19 08:35:31;;;;;;;38.00;17.27;;;;;;;8.86;53.44;101804.16;1805628;79;20957;-80
2020/12/19 08:38:15;;;;;;;47.38;19.37;;;;;;;8.88;53.42;101804.03;1803200;77;21163;-80
2020/12/19 08:40:51;;;;;;;39.60;17.77;;;;;;;8.92;53.47;101801.50;1812190;77;23380;-78
2020/12/19 08:43:31;;;;;;;36.13;16.27;;;;;;;8.88;53.47;101800.87;1778332;80;21109;-77
2020/12/19 08:46:09;;;;;;;35.92;16.32;;;;;;;8.89;53.44;101800.38;1740036;82;21342;-78
2020/12/19 08:48:37;;;;;;;39.27;17.02;;;;;;;8.90;53.41;101798.07;1746535;80;21139;-78
2020/12/19 08:51:15;;;;;;;35.33;16.25;;;;;;;8.92;53.31;101797.49;1740429;80;21584;-78
2020/12/19 08:53:43;;;;;;;36.15;14.40;;;;;;;8.91;53.27;101790.45;1775001;80;21665;-77
2020/12/19 08:56:16;;;;;;;44.30;19.12;;;;;;;8.92;53.25;101788.63;1758345;79;21151;-77
2020/12/19 08:58:55;;;;;;;38.88;17.80;;;;;;;8.93;53.29;101783.16;1757267;81;21365;-78
2020/12/19 09:01:23;;;;;;;38.38;18.07;;;;;;;8.96;53.35;101788.28;1755774;81;21582;-78
2020/12/19 09:03:52;;;;;;;38.40;17.00;;;;;;;9.00;53.24;101784.41;1760215;81;21593;-78
2020/12/19 09:06:20;;;;;;;37.98;18.25;;;;;;;9.02;53.18;101786.96;1755054;81;21092;-77
2020/12/19 09:08:48;;;;;;;33.83;16.42;;;;;;;9.02;53.09;101782.95;1754146;79;21616;-78
2020/12/19 09:11:28;;;;;;;33.50;16.62;;;;;;;9.02;53.10;101780.28;1755491;81;21378;-77
2020/12/19 09:14:10;;;;;;;33.18;16.60;;;;;;;9.00;53.08;101781.74;1759103;81;21138;-77
2020/12/19 09:16:51;;;;;;;31.20;14.95;;;;;;;8.99;53.07;101781.84;1749607;81;21120;-77
2020/12/19 09:19:19;;;;;;;28.85;14.38;;;;;;;8.96;53.04;101774.92;1747462;81;21191;-77
2020/12/19 09:22:05;;;;;;;33.23;16.23;;;;;;;8.97;53.11;101779.29;1757310;81;21651;-77
2020/12/19 09:24:33;;;;;;;31.35;16.45;;;;;;;8.99;53.11;101776.00;1752206;79;21447;-77
2020/12/19 09:27:01;;;;;;;33.65;17.45;;;;;;;9.03;53.15;101777.48;1759669;79;21609;-80
2020/12/19 09:29:29;;;;;;;34.30;16.67;;;;;;;9.05;53.02;101782.24;1753169;79;21120;-79
2020/12/19 09:31:56;;;;;;;28.42;15.38;;;;;;;9.02;52.99;101777.13;1773766;80;21101;-78
2020/12/19 09:34:24;;;;;;;28.45;15.63;;;;;;;9.02;52.97;101781.61;1769709;78;21612;-77
2020/12/19 09:36:54;;;;;;;32.90;16.12;;;;;;;9.03;52.98;101778.81;1782348;80;21363;-78
2020/12/19 09:39:21;;;;;;;28.55;14.93;;;;;;;9.02;52.95;101777.13;1759538;78;21162;-78
2020/12/19 09:41:49;;;;;;;29.15;14.93;;;;;;;9.01;53.05;101778.09;1774371;80;21096;-77
2020/12/19 09:44:17;;;;;;;25.95;14.18;;;;;;;8.99;52.94;101776.00;1740167;82;21126;-76
2020/12/19 09:46:46;;;;;;;33.00;16.02;;;;;;;8.99;52.93;101774.67;1770788;80;21632;-76
2020/12/19 09:49:14;;;;;;;31.00;15.83;;;;;;;9.03;52.94;101773.47;1771393;80;21379;-78
2020/12/19 09:51:42;;;;;;;28.10;15.15;;;;;;;9.03;52.91;101776.14;1767104;80;21152;-77
2020/12/19 09:54:10;;;;;;;34.50;16.17;;;;;;;9.08;52.90;101774.45;1766459;80;21097;-79
2020/12/19 09:56:38;;;;;;;28.90;15.72;;;;;;;9.06;53.05;101773.25;1772936;78;21121;-78
2020/12/19 09:59:07;;;;;;;30.43;15.85;;;;;;;9.18;52.79;101766.63;1743542;82;21440;-79
2020/12/19 10:01:36;;;;;;;31.93;17.17;;;;;;;9.19;52.75;101765.16;1733403;81;21360;-78
2020/12/19 10:04:04;;;;;;;30.00;15.18;;;;;;;9.19;52.74;101757.62;1738978;81;21035;-80
2020/12/19 10:06:32;;;;;;;29.23;15.45;;;;;;;9.20;52.74;101756.65;1756606;80;21113;-78
2020/12/19 10:09:02;;;;;;;25.50;13.72;;;;;;;9.18;52.68;101762.61;1765827;79;21694;-79
2020/12/19 10:11:30;;;;;;;27.73;15.08;;;;;;;9.17;52.75;101760.39;1758616;79;21174;-79
2020/12/19 10:13:58;;;;;;;25.80;14.15;;;;;;;9.20;52.78;101757.50;1771217;79;22298;-79
2020/12/19 10:16:27;;;;;;;33.15;16.97;;;;;;;9.13;53.00;101762.47;1768839;80;21129;-79
2020/12/19 10:18:55;;;;;;;27.22;15.83;;;;;;;9.19;52.92;101754.46;1774478;80;21106;-78
2020/12/19 10:21:22;;;;;;;29.50;15.93;;;;;;;9.23;52.87;101755.09;1774807;80;21567;-78
2020/12/19 10:23:50;;;;;;;24.63;14.13;;;;;;;9.27;52.71;101752.55;1772453;80;21109;-78
2020/12/19 10:26:19;;;;;;;29.27;15.20;;;;;;;9.31;52.63;101751.31;1751933;80;22748;-77
2020/12/19 10:28:47;;;;;;;27.10;14.68;;;;;;;9.33;52.46;101752.06;1762676;80;21199;-79
2020/12/19 10:31:15;;;;;;;25.17;14.38;;;;;;;9.32;52.47;101748.54;1768180;78;21105;-78
2020/12/19 10:33:43;;;;;;;28.15;14.75;;;;;;;9.34;52.48;101753.77;1766891;78;21135;-79
2020/12/19 10:36:15;;;;;;;30.43;16.20;;;;;;;9.32;52.48;101749.03;1757575;78;21902;-77
2020/12/19 10:38:43;;;;;;;29.80;16.97;;;;;;;9.29;52.47;101741.23;1775980;78;22283;-79
2020/12/19 10:41:14;;;;;;;33.45;17.77;;;;;;;9.29;52.54;101738.56;1751654;80;21767;-78
2020/12/19 10:43:44;;;;;;;33.95;17.70;;;;;;;9.31;52.70;101740.62;1743456;80;21139;-79
2020/12/19 10:46:12;;;;;;;30.75;16.50;;;;;;;9.34;52.72;101741.73;1749803;80;21089;-79
2020/12/19 10:48:40;;;;;;;30.92;16.10;;;;;;;9.36;52.72;101734.45;1748787;80;21639;-78
2020/12/19 10:51:07;;;;;;;30.12;16.15;;;;;;;9.36;52.67;101743.81;1766227;79;21213;-79
2020/12/19 10:53:35;;;;;;;28.98;15.38;;;;;;;9.36;52.61;101738.47;1764113;79;21117;-78
2020/12/19 10:56:03;;;;;;;28.12;14.93;;;;;;;9.33;52.61;101734.20;1778448;79;21564;-79
2020/12/19 10:58:31;;;;;;;31.50;17.02;;;;;;;9.34;52.53;101743.91;1774120;78;21181;-77
2020/12/19 11:00:59;;;;;;;32.42;17.45;;;;;;;9.37;52.60;101748.19;1742110;81;21201;-76
2020/12/19 11:03:27;;;;;;;29.32;16.77;;;;;;;9.37;52.57;101741.02;1748284;80;22221;-77
2020/12/19 11:05:55;;;;;;;33.08;16.60;;;;;;;9.41;52.49;101749.66;1742652;81;21283;-79
2020/12/19 11:08:24;;;;;;;31.17;15.38;;;;;;;9.31;52.67;101752.19;1743556;81;21202;-76
2020/12/19 11:10:51;;;;;;;27.17;15.30;;;;;;;9.33;52.54;101747.56;1745040;79;21228;-77
2020/12/19 11:13:19;;;;;;;26.45;15.45;;;;;;;9.37;52.37;101749.52;1749100;79;21218;-80
2020/12/19 11:15:47;;;;;;;26.80;15.35;;;;;;;9.38;52.42;101749.88;1756087;79;21420;-80
2020/12/19 11:18:15;;;;;;;28.47;15.00;;;;;;;9.39;52.45;101748.91;1752807;79;21205;-77
2020/12/19 11:20:43;;;;;;;26.70;14.55;;;;;;;9.40;52.41;101747.92;1773015;79;21239;-77
2020/12/19 11:23:13;;;;;;;27.22;16.02;;;;;;;9.40;52.37;101750.60;1771924;80;21224;-79
2020/12/19 11:25:40;;;;;;;27.80;15.75;;;;;;;9.38;52.35;101753.41;1764373;80;21224;-78
2020/12/19 11:28:08;;;;;;;28.50;14.93;;;;;;;9.39;52.29;101759.11;1735675;82;21213;-77
2020/12/19 11:30:36;;;;;;;28.75;15.63;;;;;;;9.30;52.51;101757.64;1762451;80;21208;-77